Time;durP1;ratioP1;P1;durP2;ratioP2;P2;SDS_P1;SDS_P2;PMS_P1;PMS_P2;Temp;Humidity;BMP_temperature;BMP_pressure;BME280_temperature;BME280_humidity;BME280_pressure;Samples;Min_cycle;Max_cycle;Signal;HPM_P1;HPM_P2
2023/05/02 00:01:24;;;;;;;18.90;9.20;;;;;;;5.81;60.22;97268.80;108801;1253;95587;-73
2023/05/02 00:03:51;;;;;;;14.80;8.60;;;;;;;5.71;60.34;97267.67;108821;1253;95673;-73
2023/05/02 00:06:17;;;;;;;19.80;10.70;;;;;;;5.59;60.42;97265.19;108794;1253;95844;-74
2023/05/02 00:08:44;;;;;;;17.10;9.30;;;;;;;5.52;60.79;97268.17;108456;1252;95864;-74
2023/05/02 00:11:11;;;;;;;17.20;9.50;;;;;;;5.49;60.87;97264.65;108873;1252;102753;-74
2023/05/02 00:13:37;;;;;;;20.40;9.70;;;;;;;5.41;60.96;97262.98;108786;1253;96533;-73
2023/05/02 00:16:04;;;;;;;33.20;19.90;;;;;;;5.32;61.05;97261.23;108393;1254;95722;-75
2023/05/02 00:18:31;;;;;;;45.70;31.00;;;;;;;5.28;61.40;97263.09;108806;1252;95654;-75
2023/05/02 00:20:58;;;;;;;30.90;20.00;;;;;;;5.29;61.49;97262.71;108857;1253;95655;-73
2023/05/02 00:23:24;;;;;;;33.60;21.10;;;;;;;5.24;61.46;97261.71;108779;1256;100297;-73
2023/05/02 00:25:51;;;;;;;43.50;29.80;;;;;;;5.21;61.61;97259.73;108792;1252;95657;-76
2023/05/02 00:28:18;;;;;;;33.40;21.00;;;;;;;5.23;61.75;97258.01;108762;1253;95850;-73
2023/05/02 00:30:45;;;;;;;19.40;11.60;;;;;;;5.27;61.69;97265.98;108849;1252;95628;-74
2023/05/02 00:33:13;;;;;;;16.50;9.80;;;;;;;5.27;61.64;97266.02;108427;1254;95714;-73
2023/05/02 00:35:40;;;;;;;12.70;8.10;;;;;;;5.17;61.68;97264.63;108772;1253;96630;-74
2023/05/02 00:38:06;;;;;;;15.20;8.10;;;;;;;5.16;61.89;97267.05;108859;1253;95560;-73
2023/05/02 00:40:48;;;;;;;14.70;7.70;;;;;;;5.15;62.11;97269.56;108839;1252;95924;-73
2023/05/02 00:43:16;;;;;;;12.00;7.40;;;;;;;5.06;62.13;97272.30;108831;1252;103670;-73
2023/05/02 00:45:45;;;;;;;11.60;7.10;;;;;;;5.03;62.29;97272.84;108799;1253;95574;-73
2023/05/02 00:48:12;;;;;;;12.70;8.20;;;;;;;5.05;62.37;97269.95;108456;1253;100183;-72
2023/05/02 00:50:41;;;;;;;13.70;8.20;;;;;;;5.08;62.46;97269.85;108797;1252;95553;-74
2023/05/02 00:53:10;;;;;;;20.20;9.70;;;;;;;5.10;62.62;97273.30;108782;1252;96078;-73
2023/05/02 00:55:37;;;;;;;19.10;9.70;;;;;;;5.10;62.67;97271.94;108823;1252;103276;-74
2023/05/02 00:58:13;;;;;;;13.30;9.70;;;;;;;5.04;62.67;97269.79;108660;1257;95722;-75
2023/05/02 01:00:43;;;;;;;16.90;9.60;;;;;;;4.97;62.82;97270.23;108797;1253;100148;-74
2023/05/02 01:03:25;;;;;;;16.70;9.30;;;;;;;4.97;63.02;97273.01;108793;1253;95983;-72
2023/05/02 01:06:23;;;;;;;15.60;9.20;;;;;;;5.01;63.01;97273.89;108514;1252;95749;-74
2023/05/02 01:09:00;;;;;;;19.60;10.70;;;;;;;5.01;62.94;97273.70;108138;1261;103643;-75
2023/05/02 01:11:43;;;;;;;25.80;16.10;;;;;;;4.95;62.97;97279.76;108153;1261;101802;-72
2023/05/02 01:14:11;;;;;;;28.70;19.30;;;;;;;4.86;63.07;97282.05;108144;1260;100281;-73
2023/05/02 01:16:44;;;;;;;28.30;17.00;;;;;;;4.82;63.09;97283.20;108048;1261;96006;-73
2023/05/02 01:19:21;;;;;;;18.00;11.20;;;;;;;4.83;63.17;97278.80;107981;1262;96081;-74
2023/05/02 01:21:49;;;;;;;17.90;9.80;;;;;;;4.85;63.21;97274.80;108146;1262;103450;-75
2023/05/02 01:24:28;;;;;;;19.80;9.20;;;;;;;4.85;63.24;97274.97;108185;1261;101337;-74
2023/05/02 01:26:56;;;;;;;17.80;8.30;;;;;;;4.84;63.27;97275.11;107994;1260;99965;-73
2023/05/02 01:29:23;;;;;;;17.40;8.20;;;;;;;4.83;63.32;97272.80;108122;1261;95808;-72
2023/05/02 01:31:51;;;;;;;14.60;8.30;;;;;;;4.82;63.42;97270.64;108192;1260;95892;-72
2023/05/02 01:34:21;;;;;;;17.50;8.00;;;;;;;4.80;63.39;97267.14;108135;1263;95852;-75
2023/05/02 01:36:50;;;;;;;14.20;7.50;;;;;;;4.77;63.47;97267.83;108157;1261;101300;-72
2023/05/02 01:39:23;;;;;;;12.70;7.50;;;;;;;4.75;63.49;97268.27;108168;1260;99896;-72
2023/05/02 01:41:52;;;;;;;13.10;7.80;;;;;;;4.71;63.60;97266.12;108123;1261;96280;-75
2023/05/02 01:44:21;;;;;;;11.10;6.00;;;;;;;4.68;63.60;97266.63;108186;1260;96629;-73
2023/05/02 01:46:49;;;;;;;10.80;6.10;;;;;;;4.65;63.63;97265.96;108599;1253;104044;-73
2023/05/02 01:49:18;;;;;;;9.70;5.10;;;;;;;4.61;63.68;97269.88;108465;1254;100420;-73
2023/05/02 01:51:50;;;;;;;8.90;5.30;;;;;;;4.60;63.77;97268.80;108788;1253;99493;-74
2023/05/02 01:54:19;;;;;;;10.40;5.50;;;;;;;4.60;63.77;97270.27;108825;1252;95571;-73
2023/05/02 01:56:48;;;;;;;8.50;5.30;;;;;;;4.59;63.88;97272.84;108473;1254;95988;-73
2023/05/02 01:59:19;;;;;;;10.70;5.10;;;;;;;4.58;63.99;97270.98;108894;1253;103529;-72
2023/05/02 02:01:50;;;;;;;9.90;6.10;;;;;;;4.56;63.92;97275.35;108685;1253;101597;-73
2023/05/02 02:04:20;;;;;;;10.30;5.80;;;;;;;4.54;64.06;97276.71;108813;1252;100230;-73
2023/05/02 02:06:53;;;;;;;9.10;6.20;;;;;;;4.53;64.12;97279.15;108802;1253;95579;-74
2023/05/02 02:09:19;;;;;;;9.00;5.60;;;;;;;4.52;64.15;97280.45;108447;1253;96223;-72
2023/05/02 02:11:51;;;;;;;15.10;7.10;;;;;;;4.53;64.22;97284.83;108819;1253;95897;-73
2023/05/02 02:14:21;;;;;;;11.60;6.30;;;;;;;4.51;64.23;97282.56;108503;1253;100456;-72
2023/05/02 02:16:52;;;;;;;12.60;6.40;;;;;;;4.47;64.27;97287.66;108796;1252;99894;-73
2023/05/02 02:19:21;;;;;;;10.90;6.40;;;;;;;4.42;64.32;97284.63;108437;1253;95681;-73
2023/05/02 02:21:49;;;;;;;10.20;6.40;;;;;;;4.40;64.39;97285.60;108833;1253;97576;-73
2023/05/02 02:24:20;;;;;;;9.60;5.80;;;;;;;4.37;64.49;97284.88;108301;1253;110483;-73
2023/05/02 02:26:47;;;;;;;13.00;6.40;;;;;;;4.28;64.63;97287.20;108783;1254;101216;-73
2023/05/02 02:29:13;;;;;;;10.90;6.60;;;;;;;4.17;64.72;97287.48;108809;1252;96310;-75
2023/05/02 02:31:40;;;;;;;14.60;7.50;;;;;;;4.12;64.72;97288.44;108721;1254;95635;-74
2023/05/02 02:34:07;;;;;;;10.50;7.00;;;;;;;4.13;65.02;97287.70;108817;1253;95635;-72
2023/05/02 02:36:52;;;;;;;13.50;8.40;;;;;;;4.13;65.15;97285.56;108928;1254;95639;-73
2023/05/02 02:39:28;;;;;;;13.40;8.60;;;;;;;4.10;65.28;97288.70;108817;1253;100411;-73
2023/05/02 02:42:04;;;;;;;14.50;8.50;;;;;;;4.08;65.33;97289.11;108814;1254;95610;-72
2023/05/02 02:44:43;;;;;;;12.50;7.90;;;;;;;4.02;65.40;97290.40;108805;1252;96014;-73
2023/05/02 02:47:33;;;;;;;17.60;7.40;;;;;;;3.94;65.37;97286.02;108514;1256;103732;-74
2023/05/02 02:50:03;;;;;;;17.50;9.00;;;;;;;3.95;65.51;97281.45;108184;1260;101507;-73
2023/05/02 02:52:46;;;;;;;13.80;8.50;;;;;;;3.96;65.55;97276.08;108115;1261;99969;-73
2023/05/02 02:55:37;;;;;;;12.60;7.80;;;;;;;3.94;65.63;97277.80;108149;1263;96048;-73
2023/05/02 02:58:30;;;;;;;12.80;7.60;;;;;;;3.93;65.87;97280.21;107491;1268;97400;-72
2023/05/02 03:01:02;;;;;;;11.40;5.50;;;;;;;3.91;65.89;97280.45;107751;1267;103633;-73
2023/05/02 03:03:30;;;;;;;15.10;7.20;;;;;;;3.93;65.96;97282.42;107783;1267;101460;-73
2023/05/02 03:05:57;;;;;;;13.70;6.60;;;;;;;3.96;65.78;97287.02;107730;1267;99982;-73
2023/05/02 03:08:24;;;;;;;9.60;5.80;;;;;;;3.97;65.77;97287.31;107751;1267;95692;-73
2023/05/02 03:10:50;;;;;;;9.60;6.30;;;;;;;3.94;65.82;97287.95;107779;1267;95710;-73
2023/05/02 03:13:17;;;;;;;11.20;5.60;;;;;;;3.93;65.87;97292.77;107788;1267;95742;-73
2023/05/02 03:15:53;;;;;;;8.00;5.50;;;;;;;3.93;65.89;97292.34;107514;1267;96691;-73
2023/05/02 03:18:19;;;;;;;9.40;5.10;;;;;;;3.92;65.99;97290.36;107750;1267;95691;-73
2023/05/02 03:20:46;;;;;;;12.60;5.50;;;;;;;3.90;66.07;97292.34;107749;1267;95752;-72
2023/05/02 03:23:13;;;;;;;10.80;4.70;;;;;;;3.89;66.18;97293.58;107762;1267;95735;-73
2023/05/02 03:25:39;;;;;;;8.60;5.30;;;;;;;3.85;66.26;97289.94;107760;1267;95793;-73
2023/05/02 03:28:06;;;;;;;9.00;5.20;;;;;;;3.81;66.32;97288.27;108084;1265;96084;-73
2023/05/02 03:30:34;;;;;;;11.90;5.70;;;;;;;3.84;66.27;97294.48;108173;1261;96682;-73
2023/05/02 03:33:03;;;;;;;12.00;5.50;;;;;;;3.86;66.35;97299.08;108184;1260;103697;-73
2023/05/02 03:35:30;;;;;;;9.00;5.10;;;;;;;3.86;66.38;97296.52;108522;1256;101363;-74
2023/05/02 03:37:56;;;;;;;11.60;5.30;;;;;;;3.90;66.55;97306.05;108819;1252;95637;-74
2023/05/02 03:40:23;;;;;;;8.60;5.00;;;;;;;3.91;66.79;97310.02;108824;1252;95649;-73
2023/05/02 03:42:50;;;;;;;8.40;5.50;;;;;;;3.85;66.99;97307.31;108870;1252;95648;-73
2023/05/02 03:45:16;;;;;;;8.70;4.60;;;;;;;3.79;67.19;97304.63;108936;1253;95620;-73
2023/05/02 03:47:43;;;;;;;10.60;5.80;;;;;;;3.74;67.29;97294.96;108821;1254;99912;-72
2023/05/02 03:50:10;;;;;;;11.90;5.50;;;;;;;3.73;67.27;97302.19;108808;1252;95583;-73
2023/05/02 03:52:37;;;;;;;10.70;5.60;;;;;;;3.74;67.28;97306.65;108880;1252;95581;-73
2023/05/02 03:55:04;;;;;;;11.00;5.60;;;;;;;3.79;67.30;97313.01;108835;1254;95680;-73
2023/05/02 03:57:31;;;;;;;15.50;6.20;;;;;;;3.85;67.36;97313.96;108467;1258;96562;-73
2023/05/02 03:59:58;;;;;;;9.00;5.50;;;;;;;3.87;67.39;97307.80;108883;1253;96477;-72
2023/05/02 04:02:24;;;;;;;11.60;5.40;;;;;;;3.91;67.34;97309.52;108847;1254;95989;-72
2023/05/02 04:04:51;;;;;;;10.00;5.90;;;;;;;3.94;67.28;97307.08;108830;1252;95618;-73
2023/05/02 04:07:18;;;;;;;14.40;7.30;;;;;;;3.97;67.40;97301.45;108495;1254;95739;-72
2023/05/02 04:09:45;;;;;;;15.70;8.10;;;;;;;4.02;67.37;97304.58;108455;1253;95726;-73
2023/05/02 04:12:12;;;;;;;16.90;8.40;;;;;;;4.07;67.38;97312.41;108840;1256;95762;-73
2023/05/02 04:14:39;;;;;;;15.10;7.10;;;;;;;4.11;67.62;97318.40;108938;1253;95659;-73
2023/05/02 04:17:06;;;;;;;18.20;8.80;;;;;;;4.12;67.65;97318.95;108845;1253;101540;-75
2023/05/02 04:19:33;;;;;;;18.50;8.60;;;;;;;4.15;67.68;97321.02;108808;1253;95611;-72
2023/05/02 04:22:02;;;;;;;19.40;8.60;;;;;;;4.19;67.69;97327.20;108872;1254;95568;-75
2023/05/02 04:24:28;;;;;;;16.20;8.20;;;;;;;4.23;67.62;97319.95;108880;1252;96017;-73
2023/05/02 04:26:55;;;;;;;18.10;9.00;;;;;;;4.30;67.64;97318.66;108439;1259;95777;-73
2023/05/02 04:29:22;;;;;;;16.20;7.50;;;;;;;4.36;67.73;97316.31;108427;1253;95696;-73
2023/05/02 04:31:49;;;;;;;17.60;8.70;;;;;;;4.43;67.68;97312.02;108340;1255;95692;-73
2023/05/02 04:34:16;;;;;;;12.50;7.90;;;;;;;4.49;67.78;97314.35;108610;1256;95644;-73
2023/05/02 04:36:45;;;;;;;13.40;6.40;;;;;;;4.56;67.77;97322.97;108477;1254;95812;-73
2023/05/02 04:39:12;;;;;;;15.90;6.60;;;;;;;4.62;67.63;97325.77;108837;1253;101201;-73
2023/05/02 04:41:38;;;;;;;15.70;6.40;;;;;;;4.70;67.47;97326.33;108815;1254;96106;-75
2023/05/02 04:44:05;;;;;;;12.40;6.00;;;;;;;4.78;67.58;97327.18;108866;1253;95839;-74
2023/05/02 04:46:32;;;;;;;12.40;6.30;;;;;;;4.87;67.63;97325.08;108398;1254;95693;-74
2023/05/02 04:48:58;;;;;;;12.90;5.90;;;;;;;4.94;67.75;97316.36;108428;1254;96227;-74
2023/05/02 04:51:26;;;;;;;17.80;6.40;;;;;;;5.02;67.50;97317.79;108754;1256;99490;-75
2023/05/02 04:53:53;;;;;;;9.40;4.90;;;;;;;5.09;67.35;97325.35;108494;1254;95633;-74
2023/05/02 04:56:20;;;;;;;10.60;5.10;;;;;;;5.18;67.12;97325.48;108804;1253;95609;-74
2023/05/02 04:58:47;;;;;;;12.20;5.40;;;;;;;5.28;67.21;97323.80;108297;1254;95977;-73
2023/05/02 05:01:14;;;;;;;11.30;5.70;;;;;;;5.38;67.35;97318.82;108395;1254;95695;-73
2023/05/02 05:03:40;;;;;;;11.20;6.00;;;;;;;5.50;67.05;97323.91;108695;1254;95824;-73
2023/05/02 05:06:07;;;;;;;11.50;5.50;;;;;;;5.60;66.93;97321.41;108866;1253;95855;-72
2023/05/02 05:08:34;;;;;;;18.40;7.00;;;;;;;5.71;66.94;97315.44;108871;1253;103545;-72
2023/05/02 05:11:01;;;;;;;9.60;5.60;;;;;;;5.83;66.93;97313.80;108834;1253;95771;-73
2023/05/02 05:13:27;;;;;;;14.20;4.70;;;;;;;5.96;66.49;97310.34;108833;1254;95603;-74
2023/05/02 05:15:54;;;;;;;13.00;5.70;;;;;;;6.09;66.43;97310.48;108357;1260;95585;-73
2023/05/02 05:18:21;;;;;;;11.60;4.60;;;;;;;6.22;66.14;97308.67;108925;1254;95664;-73
2023/05/02 05:20:47;;;;;;;8.00;4.30;;;;;;;6.36;65.88;97306.75;108822;1254;101562;-75
2023/05/02 05:23:14;;;;;;;10.10;4.80;;;;;;;6.49;65.73;97311.33;108816;1253;95881;-73
2023/05/02 05:25:41;;;;;;;8.90;4.10;;;;;;;6.64;65.62;97312.58;108842;1254;95624;-76
2023/05/02 05:28:08;;;;;;;8.90;4.50;;;;;;;6.79;65.47;97316.22;108836;1254;96548;-73
2023/05/02 05:30:35;;;;;;;8.80;4.70;;;;;;;6.95;65.54;97314.98;108968;1253;95602;-72
2023/05/02 05:33:01;;;;;;;8.10;4.10;;;;;;;7.09;65.22;97317.44;108854;1253;99548;-73
2023/05/02 05:35:28;;;;;;;7.60;4.50;;;;;;;7.23;65.27;97314.76;108791;1252;95578;-73
2023/05/02 05:37:55;;;;;;;10.90;4.90;;;;;;;7.35;65.30;97309.99;108484;1254;95809;-73
2023/05/02 05:40:21;;;;;;;12.00;5.00;;;;;;;7.48;65.36;97304.98;108870;1254;95797;-73
2023/05/02 05:42:48;;;;;;;11.60;4.70;;;;;;;7.62;65.51;97307.32;108913;1254;95982;-72
2023/05/02 05:45:16;;;;;;;13.00;5.60;;;;;;;7.73;65.28;97310.71;108819;1253;95571;-74
2023/05/02 05:47:43;;;;;;;14.00;5.90;;;;;;;7.84;64.98;97315.34;108809;1252;95640;-74
2023/05/02 05:50:10;;;;;;;13.40;5.50;;;;;;;7.92;64.94;97312.63;108811;1254;95662;-73
2023/05/02 05:52:37;;;;;;;11.70;5.30;;;;;;;8.03;65.14;97319.64;108817;1252;95969;-75
2023/05/02 05:55:04;;;;;;;9.30;5.10;;;;;;;8.11;65.16;97325.69;108771;1252;96034;-73
2023/05/02 05:57:31;;;;;;;11.30;5.00;;;;;;;8.20;64.98;97322.56;108814;1253;95807;-73
2023/05/02 05:59:58;;;;;;;12.50;4.50;;;;;;;8.30;65.08;97322.80;108853;1253;95627;-75
2023/05/02 06:02:24;;;;;;;12.20;4.70;;;;;;;8.38;64.93;97327.10;108834;1254;95625;-73
2023/05/02 06:04:51;;;;;;;7.80;4.50;;;;;;;8.46;64.89;97327.96;108814;1253;96523;-73
2023/05/02 06:07:18;;;;;;;7.00;4.70;;;;;;;8.52;64.78;97332.65;108402;1254;95715;-73
2023/05/02 06:09:45;;;;;;;10.50;4.50;;;;;;;8.58;64.32;97333.45;108886;1253;95799;-72
2023/05/02 06:12:11;;;;;;;10.60;4.40;;;;;;;8.62;64.04;97328.92;108826;1253;95605;-73
2023/05/02 06:14:38;;;;;;;10.20;4.60;;;;;;;8.67;63.68;97339.50;108837;1253;96921;-72
2023/05/02 06:17:05;;;;;;;11.20;4.90;;;;;;;8.71;63.36;97344.52;108816;1254;95612;-73
2023/05/02 06:19:32;;;;;;;11.80;5.60;;;;;;;8.76;63.23;97341.64;108864;1252;96056;-73
2023/05/02 06:21:58;;;;;;;10.20;5.80;;;;;;;8.82;63.11;97339.42;108375;1257;95952;-74
2023/05/02 06:24:25;;;;;;;17.90;5.90;;;;;;;8.86;63.10;97342.80;108746;1254;95744;-73
2023/05/02 06:26:52;;;;;;;10.40;5.20;;;;;;;8.95;63.73;97355.66;108357;1254;95663;-75
2023/05/02 06:29:18;;;;;;;11.60;5.10;;;;;;;9.01;64.04;97357.64;108802;1254;96486;-74
2023/05/02 06:31:45;;;;;;;10.90;5.50;;;;;;;9.10;63.95;97355.50;108501;1254;103691;-74
2023/05/02 06:34:12;;;;;;;8.70;5.40;;;;;;;9.18;63.85;97356.14;108859;1253;95689;-76
2023/05/02 06:36:38;;;;;;;12.60;5.40;;;;;;;9.31;63.86;97358.95;108791;1254;96044;-73
2023/05/02 06:39:05;;;;;;;9.00;4.80;;;;;;;9.44;63.99;97357.09;108777;1254;95556;-73
2023/05/02 06:41:32;;;;;;;10.80;5.60;;;;;;;9.58;63.61;97359.06;108537;1254;95742;-75
2023/05/02 06:43:59;;;;;;;9.30;5.50;;;;;;;9.71;62.82;97357.63;108442;1253;101507;-74
2023/05/02 06:46:28;;;;;;;9.40;5.60;;;;;;;9.85;62.56;97350.33;108808;1252;95643;-72
2023/05/02 06:48:55;;;;;;;13.80;6.50;;;;;;;10.01;62.14;97349.60;108857;1253;95681;-74
2023/05/02 06:51:22;;;;;;;12.40;6.30;;;;;;;10.18;61.67;97348.52;108428;1253;95942;-73
2023/05/02 06:53:51;;;;;;;12.80;6.60;;;;;;;10.32;61.15;97350.67;108450;1254;95663;-76
2023/05/02 06:56:18;;;;;;;12.70;6.30;;;;;;;10.47;60.50;97354.07;108824;1253;101492;-76
2023/05/02 06:58:44;;;;;;;10.50;5.80;;;;;;;10.65;60.19;97358.09;108619;1254;95678;-74
2023/05/02 07:01:11;;;;;;;14.00;5.80;;;;;;;10.80;59.82;97359.83;108833;1252;95641;-73
2023/05/02 07:03:38;;;;;;;15.10;6.20;;;;;;;10.97;59.79;97352.10;108817;1253;95676;-73
2023/05/02 07:06:05;;;;;;;11.80;5.90;;;;;;;11.17;59.17;97352.34;108757;1254;95643;-72
2023/05/02 07:08:32;;;;;;;14.60;6.20;;;;;;;11.33;58.68;97349.45;108852;1252;95737;-73
2023/05/02 07:10:58;;;;;;;13.70;5.50;;;;;;;11.50;58.37;97347.21;108762;1253;95702;-73
2023/05/02 07:13:25;;;;;;;18.20;5.70;;;;;;;11.65;57.75;97344.50;108560;1254;95976;-75
2023/05/02 07:15:53;;;;;;;12.20;5.30;;;;;;;11.79;57.28;97344.66;108798;1254;95594;-74
2023/05/02 07:18:20;;;;;;;11.40;6.00;;;;;;;11.95;56.97;97340.73;108833;1252;96045;-73
2023/05/02 07:20:46;;;;;;;10.70;4.50;;;;;;;12.12;56.71;97339.93;108794;1253;95911;-73
2023/05/02 07:23:13;;;;;;;4.70;3.60;;;;;;;12.31;56.46;97342.73;108408;1252;96020;-75
2023/05/02 07:25:40;;;;;;;7.20;4.10;;;;;;;12.51;56.31;97339.31;108842;1253;95928;-73
2023/05/02 07:28:06;;;;;;;10.10;4.20;;;;;;;12.74;55.69;97337.85;108734;1253;101228;-73
2023/05/02 07:30:33;;;;;;;8.20;4.10;;;;;;;12.96;55.12;97338.11;108766;1253;95654;-73
2023/05/02 07:33:00;;;;;;;9.30;4.30;;;;;;;13.18;55.45;97338.98;108329;1253;95859;-76
2023/05/02 07:35:27;;;;;;;6.70;3.80;;;;;;;13.37;55.42;97340.30;108777;1252;96634;-74
2023/05/02 07:37:54;;;;;;;10.10;4.30;;;;;;;13.51;55.25;97340.67;108779;1253;96798;-73
2023/05/02 07:40:21;;;;;;;7.70;3.50;;;;;;;13.66;55.25;97343.98;108810;1254;95646;-73
2023/05/02 07:42:49;;;;;;;9.20;3.60;;;;;;;13.80;54.94;97344.41;108764;1254;95669;-76
2023/05/02 07:45:16;;;;;;;4.80;3.00;;;;;;;13.93;53.91;97343.94;108772;1252;95837;-73
2023/05/02 07:47:43;;;;;;;13.20;4.80;;;;;;;14.10;53.32;97339.76;108775;1253;95615;-74
2023/05/02 07:50:10;;;;;;;8.30;4.40;;;;;;;14.24;53.17;97338.64;108745;1253;96392;-74
2023/05/02 07:52:37;;;;;;;9.90;4.40;;;;;;;14.38;52.86;97337.73;108343;1253;95721;-75
2023/05/02 07:55:04;;;;;;;8.30;4.60;;;;;;;14.60;52.72;97335.96;108740;1253;95843;-75
2023/05/02 07:57:31;;;;;;;9.30;4.70;;;;;;;15.02;52.80;97333.52;108808;1252;95753;-75
2023/05/02 07:59:58;;;;;;;7.70;4.80;;;;;;;15.50;52.84;97332.88;108853;1252;96082;-73
2023/05/02 08:02:25;;;;;;;10.50;4.40;;;;;;;16.05;52.20;97330.95;108736;1253;99670;-74
2023/05/02 08:04:52;;;;;;;7.60;4.60;;;;;;;16.56;51.53;97328.84;108753;1252;95799;-73
2023/05/02 08:07:20;;;;;;;5.60;3.80;;;;;;;17.01;50.61;97323.67;108825;1253;95633;-75
2023/05/02 08:09:47;;;;;;;4.30;2.90;;;;;;;17.51;50.47;97323.58;108789;1253;95584;-76
2023/05/02 08:12:13;;;;;;;5.70;3.80;;;;;;;18.06;50.28;97321.49;108684;1254;95592;-75
2023/05/02 08:14:40;;;;;;;5.50;3.50;;;;;;;18.58;48.75;97322.04;108782;1252;95962;-74
2023/05/02 08:17:07;;;;;;;4.80;3.20;;;;;;;18.93;47.83;97318.46;108889;1253;95842;-76
2023/05/02 08:19:33;;;;;;;5.00;3.30;;;;;;;19.34;47.40;97316.27;108766;1253;102644;-76
2023/05/02 08:22:00;;;;;;;8.00;3.70;;;;;;;19.85;46.98;97313.11;108745;1253;95874;-74
2023/05/02 08:24:27;;;;;;;5.10;3.80;;;;;;;20.38;46.19;97311.02;108733;1253;95696;-76
2023/05/02 08:26:54;;;;;;;10.20;4.00;;;;;;;20.85;45.28;97307.80;108812;1253;95594;-74
2023/05/02 08:29:20;;;;;;;5.80;3.00;;;;;;;21.24;44.87;97305.86;108881;1253;95673;-74
2023/05/02 08:31:47;;;;;;;4.00;3.00;;;;;;;21.53;43.99;97300.77;108393;1253;101331;-74
2023/05/02 08:34:14;;;;;;;7.50;2.70;;;;;;;21.92;43.44;97298.98;108838;1253;96165;-77
2023/05/02 08:36:40;;;;;;;3.40;2.70;;;;;;;22.27;43.10;97297.70;108735;1253;95610;-74
2023/05/02 08:39:08;;;;;;;4.60;2.70;;;;;;;22.57;42.10;97290.52;108359;1253;96974;-74
2023/05/02 08:41:34;;;;;;;5.30;2.70;;;;;;;22.85;41.60;97289.98;108778;1252;95693;-74
2023/05/02 08:44:03;;;;;;;4.20;2.70;;;;;;;23.02;41.02;97287.59;108481;1253;95763;-72
2023/05/02 08:46:31;;;;;;;4.80;2.60;;;;;;;23.16;40.53;97293.13;108771;1253;95944;-72
2023/05/02 08:48:59;;;;;;;5.50;2.90;;;;;;;23.38;40.00;97285.78;108784;1253;95670;-73
2023/05/02 08:51:27;;;;;;;4.50;3.20;;;;;;;23.62;39.61;97286.63;108788;1252;103133;-72
2023/05/02 08:53:54;;;;;;;3.70;2.70;;;;;;;23.86;38.96;97286.21;108790;1252;101832;-73
2023/05/02 08:56:21;;;;;;;4.80;3.30;;;;;;;24.05;38.51;97287.67;108770;1252;95935;-75
2023/05/02 08:58:48;;;;;;;5.20;2.60;;;;;;;24.20;38.84;97282.96;108792;1252;95588;-74
2023/05/02 09:01:17;;;;;;;4.00;2.80;;;;;;;24.49;38.59;97274.70;108767;1253;95609;-72
2023/05/02 09:03:46;;;;;;;3.90;2.90;;;;;;;24.71;38.27;97276.09;108814;1253;95697;-73
2023/05/02 09:06:12;;;;;;;7.00;3.10;;;;;;;24.82;37.71;97268.05;108760;1252;100645;-72
2023/05/02 09:08:40;;;;;;;7.60;2.70;;;;;;;24.97;37.25;97267.39;108391;1252;95821;-73
2023/05/02 13:13:00;;;;;;;4.90;2.30;;;;;;;25.89;31.96;97253.10;102441;1299;635563;-76
2023/05/02 13:15:28;;;;;;;4.00;2.50;;;;;;;25.37;32.29;97250.63;104372;1287;96668;-74
2023/05/02 13:17:56;;;;;;;4.10;2.60;;;;;;;24.58;33.07;97252.32;104217;1269;95887;-74
2023/05/02 13:20:24;;;;;;;2.30;2.10;;;;;;;23.31;33.58;97264.35;104255;1269;99933;-74
2023/05/02 13:22:53;;;;;;;2.40;2.10;;;;;;;22.09;34.54;97271.83;104258;1285;101666;-75
2023/05/02 13:25:21;;;;;;;2.80;2.50;;;;;;;21.28;35.51;97281.23;104215;1277;100556;-77
2023/05/02 13:27:49;;;;;;;3.10;1.90;;;;;;;20.74;36.63;97290.55;103895;1267;219218;-73
2023/05/02 13:30:17;;;;;;;2.70;2.20;;;;;;;20.65;37.07;97292.90;104335;1276;95841;-75
2023/05/02 13:32:45;;;;;;;3.30;2.70;;;;;;;20.67;37.24;97298.15;104403;1267;99951;-73
2023/05/02 13:35:14;;;;;;;2.50;2.30;;;;;;;20.60;37.56;97298.65;104353;1276;100432;-73
2023/05/02 13:37:43;;;;;;;5.40;2.50;;;;;;;20.22;38.15;97299.52;104332;1269;100436;-75
2023/05/02 13:40:12;;;;;;;2.60;2.40;;;;;;;19.93;39.15;97305.48;104502;1276;97114;-73
2023/05/02 13:42:40;;;;;;;2.30;2.00;;;;;;;19.76;39.53;97304.71;104201;1272;96045;-74
2023/05/02 13:45:09;;;;;;;2.70;2.50;;;;;;;19.42;40.68;97307.98;104242;1285;101169;-73
2023/05/02 13:47:37;;;;;;;2.60;2.40;;;;;;;19.04;41.55;97314.13;104221;1279;102038;-76
2023/05/02 13:50:05;;;;;;;2.80;2.60;;;;;;;18.59;42.72;97321.60;104369;1270;108953;-73
2023/05/02 13:52:33;;;;;;;4.20;2.40;;;;;;;18.39;43.23;97327.64;104113;1272;95952;-74
2023/05/02 13:55:02;;;;;;;2.70;2.40;;;;;;;18.24;43.45;97331.47;104183;1269;95956;-73
2023/05/02 13:57:30;;;;;;;3.80;2.20;;;;;;;18.19;43.74;97340.51;104369;1267;101467;-77
2023/05/02 13:59:58;;;;;;;2.80;2.50;;;;;;;18.23;44.02;97357.20;104391;1273;101903;-75
2023/05/02 14:02:27;;;;;;;3.90;3.40;;;;;;;18.24;45.11;97366.83;104104;1271;101433;-76
2023/05/02 14:04:55;;;;;;;4.00;3.60;;;;;;;18.13;46.18;97366.52;104521;1276;96718;-72
2023/05/02 14:07:23;;;;;;;5.50;3.20;;;;;;;18.06;46.88;97348.10;104586;1269;96798;-73
2023/05/02 14:09:51;;;;;;;5.60;3.40;;;;;;;17.83;48.03;97333.31;104590;1263;99815;-72
2023/05/02 14:12:20;;;;;;;5.70;3.40;;;;;;;17.55;49.72;97318.61;104582;1271;101339;-76
2023/05/02 14:14:48;;;;;;;5.50;2.90;;;;;;;17.06;50.66;97307.47;104575;1273;99785;-74
2023/05/02 14:17:16;;;;;;;3.20;2.70;;;;;;;16.52;51.63;97306.82;104383;1276;96250;-72
2023/05/02 14:19:46;;;;;;;3.30;2.80;;;;;;;16.39;52.09;97309.92;104595;1261;96853;-73
2023/05/02 14:22:15;;;;;;;3.70;2.80;;;;;;;16.45;52.67;97311.02;104623;1276;100936;-75
2023/05/02 14:24:43;;;;;;;5.10;3.30;;;;;;;16.47;53.18;97322.70;104797;1267;101624;-73
2023/05/02 14:27:16;;;;;;;4.50;4.10;;;;;;;16.41;53.70;97329.48;104686;1263;100163;-73
2023/05/02 14:29:46;;;;;;;4.00;3.40;;;;;;;16.30;54.75;97341.70;104754;1261;95977;-73
2023/05/02 14:32:15;;;;;;;5.00;4.20;;;;;;;16.33;55.17;97351.92;104394;1276;95857;-74
2023/05/02 14:34:43;;;;;;;5.10;4.60;;;;;;;16.34;54.93;97350.52;104441;1266;101477;-73
2023/05/02 14:37:11;;;;;;;6.50;4.90;;;;;;;16.31;55.63;97343.13;105113;1258;101098;-73
2023/05/02 14:39:41;;;;;;;6.50;5.20;;;;;;;16.35;56.47;97343.52;105061;1261;98754;-73
2023/05/02 14:42:09;;;;;;;6.90;5.90;;;;;;;16.43;56.85;97343.27;105227;1254;96350;-73
2023/05/02 14:44:37;;;;;;;5.60;4.60;;;;;;;16.45;57.66;97335.86;105394;1257;95922;-73
2023/05/02 14:47:05;;;;;;;6.30;4.80;;;;;;;16.51;57.83;97331.07;105402;1264;101191;-72
2023/05/02 14:49:34;;;;;;;7.10;4.30;;;;;;;16.57;57.77;97341.99;105256;1254;102376;-73
2023/05/02 14:52:02;;;;;;;9.80;5.10;;;;;;;16.54;57.50;97351.92;105493;1252;100771;-73
2023/05/02 14:54:30;;;;;;;6.80;4.70;;;;;;;16.53;57.81;97354.48;105106;1274;95821;-72
2023/05/02 14:56:58;;;;;;;5.60;4.70;;;;;;;16.55;57.89;97358.57;105102;1257;96088;-73
2023/05/02 14:59:29;;;;;;;6.10;4.00;;;;;;;16.57;58.03;97369.49;105132;1256;100988;-75
2023/05/02 15:01:57;;;;;;;11.60;8.80;;;;;;;16.49;58.67;97372.55;104969;1269;102014;-73
2023/05/02 15:04:26;;;;;;;12.60;8.40;;;;;;;16.40;58.95;97373.02;105081;1257;100605;-73
2023/05/02 15:06:55;;;;;;;12.50;7.90;;;;;;;16.37;59.40;97375.57;105059;1251;95801;-76
2023/05/02 15:09:25;;;;;;;9.10;7.10;;;;;;;16.24;59.51;97380.91;105128;1257;96678;-73
2023/05/02 15:11:53;;;;;;;12.20;7.80;;;;;;;16.14;59.82;97380.92;105004;1261;101299;-73
2023/05/02 15:14:22;;;;;;;10.00;7.10;;;;;;;16.08;60.78;97380.67;105080;1260;100465;-76
2023/05/02 15:16:50;;;;;;;7.20;6.20;;;;;;;16.10;60.78;97373.17;105063;1254;100445;-73
2023/05/02 15:19:18;;;;;;;6.90;5.40;;;;;;;16.12;61.22;97372.25;105095;1260;97190;-73
2023/05/02 15:21:47;;;;;;;6.30;5.50;;;;;;;16.16;61.39;97377.48;105084;1257;95826;-73
2023/05/02 15:24:16;;;;;;;7.30;5.60;;;;;;;16.23;61.40;97381.29;105115;1258;101593;-73
2023/05/02 15:26:44;;;;;;;7.30;5.50;;;;;;;16.26;61.05;97389.52;104960;1269;110345;-71
2023/05/02 15:29:12;;;;;;;8.40;5.30;;;;;;;16.26;61.12;97389.52;105006;1258;100518;-73
2023/05/02 15:31:40;;;;;;;9.70;7.70;;;;;;;16.22;61.35;97387.88;105033;1258;95952;-73